Overview Statistics Trail Chart Weather Telemetry Raw packets
 

This is the latest recevied weather packets stored in our database for station/object N5JXS. If no packets are shown the sender has not sent any weather packets the latest 10 day(s).

<< 36 37 38 39 40 41 42 >>
Time Temp. Humidity Pressure Rain* Wind** Luminosity Snow
1788381034 27.78° C 25% 1024.4 hPa 0 mm - 657 W/m² -
1788380730 27.78° C 25% 1024.2 hPa 0 mm - 357 W/m² -
1788380426 27.22° C 26% 1024.1 hPa 0 mm - 595 W/m² -
1788380122 26.67° C 27% 1024.6 hPa 0 mm - 749 W/m² -
1788379821 27.22° C 27% 1024.2 hPa 0 mm - 115 W/m² -
1788379516 27.78° C 25% 1024.6 hPa 0 mm - 698 W/m² -
1788379220 28.33° C 25% 1024.7 hPa 0 mm - 723 W/m² -
1788378909 27.78° C 28% 1024.5 hPa 0 mm - 742 W/m² -
1788378607 27.78° C 26% 1024.5 hPa 0 mm - 744 W/m² -
1788378301 27.22° C 27% 1025 hPa 0 mm - 567 W/m² -
1788377996 27.22° C 27% 1024.5 hPa 0 mm - 539 W/m² -
1788377692 26.11° C 28% 1024.8 hPa 0 mm - 745 W/m² -
1788377390 25° C 30% 1024.8 hPa 0 mm - 351 W/m² -
1788377089 24.44° C 30% 1024.8 hPa 0 mm - 128 W/m² -
1788376788 25.56° C 29% 1025.1 hPa 0 mm - 144 W/m² -
1788376484 25° C 30% 1025 hPa 0 mm - 749 W/m² -
1788376179 25.56° C 30% 1025 hPa 0 mm - 132 W/m² -
1788375875 25° C 30% 1025.2 hPa 0 mm - 399 W/m² -
1788375570 25° C 30% 1025.1 hPa 0 mm - 150 W/m² -
1788375266 24.44° C 30% 1025.2 hPa 0 mm - 689 W/m² -
1788374961 24.44° C 30% 1025.5 hPa 0 mm - 222 W/m² -
1788374656 24.44° C 30% 1025.5 hPa 0 mm - 141 W/m² -
1788374352 24.44° C 30% 1025.5 hPa 0 mm - 116 W/m² -
1788374057 24.44° C 31% 1025.6 hPa 0 mm - 147 W/m² -
1788373744 24.44° C 30% 1025.7 hPa 0 mm - 157 W/m² -

* Rain latest hour (hover to see other rain measurements)
** Current wind speed in m/s (hover to see current wind gust speed)